Time;durP1;ratioP1;P1;durP2;ratioP2;P2;SDS_P1;SDS_P2;PMS_P1;PMS_P2;Temp;Humidity;BMP_temperature;BMP_pressure;BME280_temperature;BME280_humidity;BME280_pressure;Samples;Min_cycle;Max_cycle;Signal;HPM_P1;HPM_P2
2021/07/10 00:01:31;;;;;;;136.10;18.38;;;14.40;99.90;;;;;;5084158;28;20056;-67
2021/07/10 00:03:58;;;;;;;169.50;17.67;;;14.40;99.90;;;;;;5084763;28;20496;-67
2021/07/10 00:06:25;;;;;;;157.68;16.17;;;14.40;99.90;;;;;;5084508;28;20056;-67
2021/07/10 00:08:52;;;;;;;291.77;26.02;;;14.40;99.90;;;;;;5085103;28;20047;-69
2021/07/10 00:11:20;;;;;;;311.17;28.85;;;14.40;99.90;;;;;;5084217;28;20047;-67
2021/07/10 00:13:47;;;;;;;231.43;22.90;;;14.50;99.90;;;;;;5084248;28;20503;-68
2021/07/10 00:16:14;;;;;;;280.10;21.75;;;14.50;99.90;;;;;;5083551;28;20055;-68
2021/07/10 00:18:41;;;;;;;272.88;27.75;;;14.50;99.90;;;;;;5084313;28;20158;-67
2021/07/10 00:21:08;;;;;;;216.05;24.67;;;14.50;99.90;;;;;;5086685;28;20116;-66
2021/07/10 00:23:36;;;;;;;224.50;24.95;;;14.40;99.90;;;;;;5085664;28;20092;-69
2021/07/10 00:26:03;;;;;;;236.43;25.65;;;14.40;99.90;;;;;;5081970;28;20087;-69
2021/07/10 00:28:31;;;;;;;284.10;29.58;;;14.40;99.90;;;;;;5082887;28;20051;-69
2021/07/10 00:30:58;;;;;;;235.70;24.50;;;14.30;99.90;;;;;;5082811;28;20530;-66
2021/07/10 00:33:25;;;;;;;232.55;25.48;;;14.40;99.90;;;;;;5081471;28;20471;-70
2021/07/10 00:35:52;;;;;;;326.83;29.85;;;14.30;99.90;;;;;;5084869;28;20055;-68
2021/07/10 00:38:19;;;;;;;304.88;26.02;;;14.30;99.90;;;;;;5084130;28;20051;-69
2021/07/10 00:40:46;;;;;;;263.83;30.05;;;14.30;99.90;;;;;;5082653;28;20056;-69
2021/07/10 00:43:13;;;;;;;176.23;24.80;;;14.30;99.90;;;;;;5080612;28;20080;-67
2021/07/10 00:45:42;;;;;;;106.65;20.25;;;14.20;99.90;;;;;;5079009;28;20078;-69
2021/07/10 00:48:09;;;;;;;43.47;14.95;;;14.20;99.90;;;;;;5081529;28;20052;-70
2021/07/10 00:50:39;;;;;;;43.90;14.32;;;14.30;99.90;;;;;;5079945;28;20056;-69
2021/07/10 00:53:06;;;;;;;29.00;13.10;;;14.30;99.90;;;;;;5080939;28;20059;-67
2021/07/10 00:55:34;;;;;;;46.63;13.68;;;14.30;99.90;;;;;;5081091;28;20408;-69
2021/07/10 00:58:01;;;;;;;92.88;17.70;;;14.30;99.90;;;;;;5083035;28;20051;-67
2021/07/10 01:00:28;;;;;;;54.58;15.95;;;14.30;99.90;;;;;;5079524;28;20503;-68
2021/07/10 01:02:58;;;;;;;82.57;15.75;;;14.40;99.90;;;;;;5082907;28;20120;-69
2021/07/10 01:05:26;;;;;;;119.18;20.52;;;14.40;99.90;;;;;;5077937;28;20055;-67
2021/07/10 01:07:55;;;;;;;67.78;17.00;;;14.50;99.90;;;;;;5080102;28;20052;-67
2021/07/10 01:10:22;;;;;;;61.30;16.13;;;14.40;99.90;;;;;;5081808;28;20298;-68
2021/07/10 01:12:51;;;;;;;43.13;15.32;;;14.50;99.90;;;;;;5080330;28;20059;-67
2021/07/10 01:15:21;;;;;;;25.73;12.40;;;14.40;99.90;;;;;;5078669;28;20116;-67
2021/07/10 01:17:48;;;;;;;45.13;14.35;;;14.40;99.90;;;;;;5081351;28;20055;-67
2021/07/10 01:20:19;;;;;;;90.90;18.65;;;14.50;99.90;;;;;;5084058;28;20051;-69
2021/07/10 01:22:50;;;;;;;200.77;23.55;;;14.40;99.90;;;;;;5085935;28;20063;-68
2021/07/10 01:25:23;;;;;;;241.35;26.67;;;14.40;99.90;;;;;;5084387;28;20066;-67
2021/07/10 01:27:50;;;;;;;145.63;23.33;;;14.40;99.90;;;;;;5085268;28;20097;-67
2021/07/10 01:30:20;;;;;;;170.73;24.67;;;14.50;99.90;;;;;;5083565;28;20051;-67
2021/07/10 01:32:48;;;;;;;138.60;22.80;;;14.60;99.90;;;;;;5084440;28;20067;-67
2021/07/10 01:35:16;;;;;;;211.07;23.35;;;14.60;99.90;;;;;;5085794;28;20600;-68
2021/07/10 01:37:43;;;;;;;221.02;22.75;;;14.60;99.90;;;;;;5083545;28;21488;-69
2021/07/10 01:40:14;;;;;;;230.57;25.50;;;14.50;99.90;;;;;;5087772;28;20097;-68
2021/07/10 01:42:41;;;;;;;174.93;22.35;;;14.40;99.90;;;;;;5085902;28;20048;-69
2021/07/10 01:45:09;;;;;;;179.50;20.92;;;14.40;99.90;;;;;;5084416;28;20162;-69
2021/07/10 01:47:36;;;;;;;163.32;18.27;;;14.30;99.90;;;;;;5083931;28;20060;-69
2021/07/10 01:50:06;;;;;;;141.77;16.95;;;14.30;99.90;;;;;;5084235;28;20051;-67
2021/07/10 01:52:33;;;;;;;258.88;23.83;;;14.20;99.90;;;;;;5081934;28;20056;-69
2021/07/10 01:55:01;;;;;;;129.20;20.05;;;14.20;99.90;;;;;;5082068;28;20055;-67
2021/07/10 01:57:29;;;;;;;130.05;21.95;;;14.20;99.90;;;;;;5083239;28;20462;-67
2021/07/10 01:59:57;;;;;;;134.52;21.48;;;14.30;99.90;;;;;;5081429;28;20059;-68
2021/07/10 02:02:24;;;;;;;132.07;20.55;;;14.30;99.90;;;;;;5085844;28;20051;-69
2021/07/10 02:04:53;;;;;;;140.10;22.25;;;14.40;99.90;;;;;;5083123;28;20056;-67
2021/07/10 02:07:20;;;;;;;135.23;21.88;;;14.40;99.90;;;;;;5085486;28;20063;-71
2021/07/10 02:09:47;;;;;;;97.00;18.65;;;14.30;99.90;;;;;;5084659;28;20059;-67
2021/07/10 02:12:16;;;;;;;104.28;20.35;;;14.30;99.90;;;;;;5083996;28;20048;-69
2021/07/10 02:14:44;;;;;;;101.97;20.80;;;14.40;99.90;;;;;;5085776;28;20500;-67
2021/07/10 02:17:11;;;;;;;138.68;22.20;;;14.30;99.90;;;;;;5077665;28;20500;-67
2021/07/10 02:19:38;;;;;;;125.72;21.75;;;14.30;99.90;;;;;;5083779;28;20055;-68
2021/07/10 02:22:06;;;;;;;129.45;23.35;;;14.30;99.90;;;;;;5080909;28;20527;-67
2021/07/10 02:24:33;;;;;;;108.65;22.75;;;14.20;99.90;;;;;;5079963;28;20059;-69
2021/07/10 02:27:00;;;;;;;116.05;23.30;;;14.30;99.90;;;;;;5077784;28;20059;-67
2021/07/10 02:29:28;;;;;;;100.18;22.23;;;14.40;99.90;;;;;;5081363;28;20687;-71
2021/07/10 02:31:56;;;;;;;186.88;27.45;;;14.40;99.90;;;;;;5084310;28;20117;-67
2021/07/10 02:34:23;;;;;;;137.85;27.55;;;14.40;99.90;;;;;;5081881;28;20055;-67
2021/07/10 02:36:50;;;;;;;118.40;26.60;;;14.40;99.90;;;;;;5082841;28;20402;-68
2021/07/10 02:39:17;;;;;;;135.95;25.75;;;14.40;99.90;;;;;;5081160;28;20055;-67
2021/07/10 02:41:44;;;;;;;185.27;29.23;;;14.40;99.90;;;;;;5083856;28;20052;-69
2021/07/10 02:44:11;;;;;;;125.47;28.58;;;14.40;99.90;;;;;;5084252;28;20051;-67
2021/07/10 02:46:39;;;;;;;144.38;28.48;;;14.40;99.90;;;;;;5084027;28;20056;-69
2021/07/10 02:49:07;;;;;;;131.95;27.48;;;14.40;99.90;;;;;;5082113;28;20705;-69
2021/07/10 02:51:34;;;;;;;137.93;26.65;;;14.50;99.90;;;;;;5082060;28;20051;-69
2021/07/10 02:54:01;;;;;;;114.60;27.33;;;14.40;99.90;;;;;;5083062;28;20419;-68
2021/07/10 02:56:28;;;;;;;88.57;23.70;;;14.40;99.90;;;;;;5080921;28;20442;-67
2021/07/10 02:58:55;;;;;;;121.00;24.33;;;14.50;99.90;;;;;;5081587;28;20121;-69
2021/07/10 03:01:22;;;;;;;91.45;23.45;;;14.60;99.90;;;;;;5081391;28;20063;-67
2021/07/10 03:03:50;;;;;;;97.93;22.33;;;14.50;99.90;;;;;;5081362;28;20056;-69
2021/07/10 03:06:19;;;;;;;84.47;21.67;;;14.40;99.90;;;;;;5081885;28;20051;-69
2021/07/10 03:08:46;;;;;;;123.28;23.38;;;14.30;99.90;;;;;;5081475;28;20149;-67
2021/07/10 03:11:13;;;;;;;103.50;23.65;;;14.30;99.90;;;;;;5082834;28;20052;-67
2021/07/10 03:13:40;;;;;;;80.60;22.25;;;14.20;99.90;;;;;;5077368;28;20613;-70
2021/07/10 03:16:08;;;;;;;101.22;22.10;;;14.20;99.90;;;;;;5080625;28;20055;-67
2021/07/10 03:18:35;;;;;;;148.75;26.50;;;14.20;99.90;;;;;;5076450;28;20051;-68
2021/07/10 03:21:02;;;;;;;139.10;27.45;;;14.30;99.90;;;;;;5076933;28;20052;-67
2021/07/10 03:23:31;;;;;;;125.97;25.83;;;14.30;99.90;;;;;;5078931;28;20056;-67
2021/07/10 03:25:58;;;;;;;127.93;24.77;;;14.20;99.90;;;;;;5078471;28;20570;-69
2021/07/10 03:28:25;;;;;;;206.80;32.63;;;14.30;99.90;;;;;;5078441;28;20553;-67
2021/07/10 03:30:53;;;;;;;161.18;28.52;;;14.30;99.90;;;;;;5083199;28;20055;-67
2021/07/10 03:33:21;;;;;;;236.40;32.55;;;14.30;99.90;;;;;;5082863;28;20059;-69
2021/07/10 03:35:49;;;;;;;213.65;30.63;;;14.30;99.90;;;;;;5085133;28;20060;-67
2021/07/10 03:38:16;;;;;;;284.58;36.85;;;14.20;99.90;;;;;;5083773;28;20105;-68
2021/07/10 03:40:45;;;;;;;254.48;35.30;;;14.30;99.90;;;;;;5083371;28;20055;-67
2021/07/10 03:43:12;;;;;;;213.02;34.15;;;14.30;99.90;;;;;;5087064;28;20058;-68
2021/07/10 03:45:39;;;;;;;272.30;37.08;;;14.30;99.90;;;;;;5086547;28;20101;-68
2021/07/10 03:48:07;;;;;;;257.13;36.13;;;14.30;99.90;;;;;;5082671;28;20051;-68
2021/07/10 03:50:34;;;;;;;224.80;35.65;;;14.30;99.90;;;;;;5086801;28;20419;-67
2021/07/10 03:53:01;;;;;;;150.88;28.98;;;14.30;99.90;;;;;;5084645;28;20056;-68
2021/07/10 03:55:28;;;;;;;198.30;32.35;;;14.30;99.90;;;;;;5085396;27;20063;-69
2021/07/10 03:57:57;;;;;;;138.20;31.35;;;14.30;99.90;;;;;;5085729;28;20052;-68
2021/07/10 04:00:24;;;;;;;97.35;26.75;;;14.40;99.90;;;;;;5082069;28;20516;-69
2021/07/10 04:02:51;;;;;;;93.35;25.52;;;14.30;99.90;;;;;;5085439;28;20401;-67
2021/07/10 04:05:18;;;;;;;79.90;25.10;;;14.30;99.90;;;;;;5085635;28;20052;-69
2021/07/10 04:07:46;;;;;;;75.78;25.10;;;14.30;99.90;;;;;;5085598;28;20553;-69
2021/07/10 04:10:14;;;;;;;76.07;22.85;;;14.30;99.90;;;;;;5087162;28;20107;-71
2021/07/10 04:12:41;;;;;;;78.15;22.73;;;14.30;99.90;;;;;;5085859;28;20056;-68
2021/07/10 04:15:11;;;;;;;65.18;22.23;;;14.30;99.90;;;;;;5084526;28;20056;-72
2021/07/10 04:17:39;;;;;;;63.80;21.25;;;14.30;99.90;;;;;;5084317;28;20105;-70
2021/07/10 04:20:08;;;;;;;63.90;20.88;;;14.30;99.90;;;;;;5086041;28;20416;-68
2021/07/10 04:22:35;;;;;;;59.97;20.85;;;14.20;99.90;;;;;;5085589;28;20052;-68
2021/07/10 04:25:04;;;;;;;49.20;19.30;;;14.20;99.90;;;;;;5084039;28;20533;-70
2021/07/10 04:27:32;;;;;;;61.75;20.23;;;14.20;99.90;;;;;;5081707;28;20386;-70
2021/07/10 04:29:59;;;;;;;50.63;21.85;;;14.20;99.90;;;;;;5084636;28;20143;-67
2021/07/10 04:32:28;;;;;;;60.78;20.45;;;14.10;99.90;;;;;;5082518;28;20104;-71
2021/07/10 04:34:55;;;;;;;49.55;21.55;;;14.10;99.90;;;;;;5082230;28;20052;-69
2021/07/10 04:37:23;;;;;;;46.10;18.08;;;14.20;99.90;;;;;;5083266;28;20487;-68
2021/07/10 04:39:50;;;;;;;49.30;20.33;;;14.30;99.90;;;;;;5084594;28;20132;-69
2021/07/10 04:42:17;;;;;;;55.97;19.20;;;14.30;99.90;;;;;;5083160;28;20077;-68
2021/07/10 04:44:44;;;;;;;56.35;20.55;;;14.40;99.90;;;;;;5082873;28;20047;-67
2021/07/10 04:47:12;;;;;;;45.35;19.55;;;14.40;99.90;;;;;;5082528;28;20060;-67
2021/07/10 04:49:40;;;;;;;39.10;18.30;;;14.40;99.90;;;;;;5084854;28;20463;-69
2021/07/10 04:52:08;;;;;;;36.38;18.08;;;14.40;99.90;;;;;;5084465;28;20113;-68
2021/07/10 04:54:35;;;;;;;38.63;17.77;;;14.40;99.90;;;;;;5083440;28;20924;-69
2021/07/10 04:57:03;;;;;;;29.52;16.63;;;14.50;99.90;;;;;;5086897;28;20047;-68
2021/07/10 04:59:30;;;;;;;34.10;17.00;;;14.60;99.90;;;;;;5083698;28;20044;-68
2021/07/10 05:01:57;;;;;;;35.42;17.48;;;14.60;99.90;;;;;;5085538;28;20439;-68
2021/07/10 05:04:24;;;;;;;33.70;16.75;;;14.70;99.90;;;;;;5083032;28;20052;-68
2021/07/10 05:06:53;;;;;;;38.28;16.70;;;14.60;99.90;;;;;;5084822;28;20415;-68
2021/07/10 05:09:20;;;;;;;34.67;16.95;;;14.60;99.90;;;;;;5085287;28;20048;-67
2021/07/10 05:11:47;;;;;;;37.20;17.08;;;14.70;99.90;;;;;;5084459;28;20048;-69
2021/07/10 05:14:14;;;;;;;29.38;15.85;;;14.80;99.90;;;;;;5083193;28;20479;-68
2021/07/10 05:16:42;;;;;;;30.20;16.25;;;14.90;99.90;;;;;;5084507;28;20051;-67
2021/07/10 05:19:09;;;;;;;27.85;16.42;;;14.90;99.90;;;;;;5083843;28;20047;-69
2021/07/10 05:21:36;;;;;;;33.25;17.73;;;14.90;99.90;;;;;;5084037;28;20154;-68
2021/07/10 05:24:05;;;;;;;32.75;16.98;;;15.00;99.90;;;;;;5084343;28;20800;-67
2021/07/10 05:26:32;;;;;;;29.17;15.60;;;15.00;99.90;;;;;;5085045;28;20064;-68
2021/07/10 05:29:00;;;;;;;30.25;17.30;;;15.10;99.90;;;;;;5080555;28;20052;-68
2021/07/10 05:31:27;;;;;;;31.23;16.88;;;15.10;99.90;;;;;;5083558;28;20415;-67
2021/07/10 05:33:54;;;;;;;31.38;17.27;;;15.10;99.90;;;;;;5084255;28;20471;-70
2021/07/10 05:36:21;;;;;;;25.30;15.55;;;15.10;99.90;;;;;;5082791;28;20564;-68
2021/07/10 05:38:48;;;;;;;22.90;14.40;;;15.10;99.90;;;;;;5084209;28;20717;-68
2021/07/10 05:41:17;;;;;;;23.75;14.63;;;15.20;99.90;;;;;;5083722;28;20052;-68
2021/07/10 05:43:44;;;;;;;25.17;15.38;;;15.30;99.90;;;;;;5082721;28;20501;-68
2021/07/10 05:46:11;;;;;;;23.65;14.38;;;15.20;99.90;;;;;;5084720;28;20105;-69
2021/07/10 05:48:38;;;;;;;25.55;14.77;;;15.20;99.90;;;;;;5081833;28;20062;-70
2021/07/10 05:51:05;;;;;;;22.30;15.15;;;15.20;99.90;;;;;;5083034;28;20051;-70
2021/07/10 05:53:32;;;;;;;23.73;14.23;;;15.30;99.90;;;;;;5083396;28;20457;-70
2021/07/10 05:55:59;;;;;;;22.33;13.90;;;15.30;99.90;;;;;;5083157;28;20580;-68
2021/07/10 05:58:28;;;;;;;24.35;15.43;;;15.40;99.90;;;;;;5083121;28;20105;-68
2021/07/10 06:00:55;;;;;;;24.30;14.35;;;15.40;99.90;;;;;;5084781;28;20550;-68
2021/07/10 06:03:22;;;;;;;24.17;14.50;;;15.50;99.90;;;;;;5082630;28;20048;-70
2021/07/10 06:05:49;;;;;;;23.95;15.43;;;15.70;99.90;;;;;;5083713;28;20408;-68
2021/07/10 06:08:16;;;;;;;22.88;15.20;;;15.70;99.90;;;;;;5083581;28;20520;-70
2021/07/10 06:10:43;;;;;;;24.83;15.27;;;15.70;99.90;;;;;;5081822;28;20120;-68
2021/07/10 06:13:10;;;;;;;27.77;15.93;;;15.80;99.90;;;;;;5083539;28;20124;-70
2021/07/10 06:15:39;;;;;;;23.00;14.85;;;15.70;99.90;;;;;;5082378;28;20051;-70
2021/07/10 06:18:06;;;;;;;24.85;15.07;;;15.70;99.90;;;;;;5081499;28;20048;-68
2021/07/10 06:20:34;;;;;;;24.08;14.13;;;15.70;99.90;;;;;;5082778;28;20143;-68
2021/07/10 06:23:04;;;;;;;26.08;14.82;;;15.70;99.90;;;;;;5082235;28;20443;-68
2021/07/10 06:25:32;;;;;;;23.13;13.82;;;15.80;99.90;;;;;;5081582;28;20064;-70
2021/07/10 06:27:59;;;;;;;21.98;14.00;;;15.80;99.90;;;;;;5082669;28;20048;-68
2021/07/10 06:30:26;;;;;;;26.27;15.55;;;15.90;99.90;;;;;;5081254;28;20519;-68
2021/07/10 06:32:55;;;;;;;22.45;13.88;;;15.90;99.90;;;;;;5081744;28;20055;-70
2021/07/10 06:35:22;;;;;;;25.08;14.05;;;16.00;99.90;;;;;;5081340;28;20393;-68
2021/07/10 06:37:49;;;;;;;21.90;14.68;;;15.90;99.90;;;;;;5081361;28;20133;-68
2021/07/10 06:40:18;;;;;;;24.58;14.85;;;15.90;99.90;;;;;;5082348;28;20309;-68
2021/07/10 06:42:46;;;;;;;22.27;14.75;;;15.90;99.90;;;;;;5079857;28;20344;-69
2021/07/10 06:45:15;;;;;;;26.20;14.68;;;16.10;99.90;;;;;;5083993;28;20060;-68
2021/07/10 06:47:42;;;;;;;24.08;15.18;;;16.00;99.90;;;;;;5080248;28;20500;-70
2021/07/10 06:50:13;;;;;;;26.00;15.80;;;16.10;99.90;;;;;;5080513;28;20385;-70
2021/07/10 06:52:41;;;;;;;22.77;14.02;;;16.10;99.90;;;;;;5080083;28;20055;-68
2021/07/10 06:55:10;;;;;;;24.08;15.20;;;16.00;99.90;;;;;;5080266;28;20652;-68
2021/07/10 06:57:38;;;;;;;22.63;14.65;;;16.00;99.90;;;;;;5080653;28;20110;-68
2021/07/10 07:00:07;;;;;;;20.92;14.43;;;16.10;99.90;;;;;;5081924;28;20054;-68
2021/07/10 07:02:34;;;;;;;23.45;15.27;;;16.10;99.90;;;;;;5081795;28;20047;-68
2021/07/10 07:05:01;;;;;;;21.50;13.85;;;16.00;99.90;;;;;;5080136;28;20051;-68
2021/07/10 07:07:29;;;;;;;21.67;14.07;;;16.00;99.90;;;;;;5082778;28;20105;-68
2021/07/10 07:09:56;;;;;;;21.20;13.52;;;16.10;99.90;;;;;;5080450;28;20056;-68
2021/07/10 07:12:23;;;;;;;22.70;13.77;;;16.20;99.90;;;;;;5081124;28;20051;-69
2021/07/10 07:14:51;;;;;;;28.08;15.20;;;16.30;99.90;;;;;;5082093;28;20132;-69
2021/07/10 07:17:18;;;;;;;19.63;12.07;;;16.30;99.90;;;;;;5082884;28;20048;-68
2021/07/10 07:19:45;;;;;;;18.05;11.88;;;16.40;99.90;;;;;;5078089;28;20101;-68
2021/07/10 07:22:12;;;;;;;19.88;11.77;;;16.50;99.90;;;;;;5082048;28;20044;-68
2021/07/10 07:24:41;;;;;;;18.85;12.85;;;16.70;99.90;;;;;;5082007;28;20656;-71
2021/07/10 07:27:08;;;;;;;22.88;13.15;;;16.60;99.90;;;;;;5081936;28;20440;-70
2021/07/10 07:29:36;;;;;;;17.02;11.18;;;16.50;99.90;;;;;;5083594;28;20127;-68
2021/07/10 07:32:06;;;;;;;17.30;12.38;;;16.50;99.90;;;;;;5085376;28;20048;-66
2021/07/10 07:34:33;;;;;;;15.15;11.13;;;16.70;99.90;;;;;;5085016;28;20577;-69
2021/07/10 07:37:00;;;;;;;14.93;10.88;;;16.60;99.90;;;;;;5084132;28;20574;-70
2021/07/10 07:39:28;;;;;;;14.90;10.50;;;16.80;99.90;;;;;;5082389;28;20059;-70
2021/07/10 07:41:57;;;;;;;15.90;10.50;;;17.00;99.90;;;;;;5084275;28;20449;-69
2021/07/10 07:44:24;;;;;;;16.70;10.23;;;17.00;99.90;;;;;;5084869;28;20112;-68
2021/07/10 07:46:51;;;;;;;15.00;10.27;;;17.00;99.90;;;;;;5085701;28;20048;-69
2021/07/10 07:49:18;;;;;;;16.10;10.30;;;17.30;99.90;;;;;;5082381;28;20595;-68
2021/07/10 07:51:45;;;;;;;25.90;11.57;;;17.30;99.90;;;;;;5081034;28;20633;-68
2021/07/10 07:54:12;;;;;;;15.48;10.98;;;17.30;99.90;;;;;;5084336;28;20110;-70
2021/07/10 07:56:39;;;;;;;13.75;10.07;;;17.40;99.90;;;;;;5082651;28;20047;-68
2021/07/10 07:59:07;;;;;;;13.23;9.07;;;17.50;99.90;;;;;;5080484;28;20121;-70
2021/07/10 08:01:34;;;;;;;14.55;9.70;;;17.70;99.90;;;;;;5083822;28;20116;-69
2021/07/10 08:04:01;;;;;;;12.93;8.98;;;17.90;99.90;;;;;;5081878;28;20589;-69
2021/07/10 08:06:30;;;;;;;11.70;8.50;;;17.90;99.90;;;;;;5083144;28;20155;-71
2021/07/10 08:08:57;;;;;;;15.40;9.38;;;18.00;99.90;;;;;;5082754;28;20063;-70
2021/07/10 08:11:24;;;;;;;15.38;10.65;;;17.90;99.90;;;;;;5079539;28;20424;-69
2021/07/10 08:13:51;;;;;;;15.68;10.27;;;17.70;99.90;;;;;;5080596;28;20102;-70
2021/07/10 08:16:19;;;;;;;15.15;10.85;;;17.70;99.90;;;;;;5081364;28;20048;-69
2021/07/10 08:18:46;;;;;;;20.65;14.20;;;17.90;99.90;;;;;;5084257;28;20169;-68
2021/07/10 08:21:14;;;;;;;18.67;14.30;;;17.80;99.90;;;;;;5081428;28;20516;-70
2021/07/10 08:23:41;;;;;;;19.33;13.95;;;17.80;99.90;;;;;;5084610;28;20135;-68
2021/07/10 08:26:08;;;;;;;20.67;15.55;;;17.90;99.90;;;;;;5083361;28;20052;-70
2021/07/10 08:28:35;;;;;;;19.73;13.43;;;17.90;99.90;;;;;;5084801;28;20052;-68
2021/07/10 08:31:03;;;;;;;19.08;14.30;;;18.00;99.90;;;;;;5084486;28;20063;-70
2021/07/10 08:33:32;;;;;;;17.77;14.18;;;18.20;99.90;;;;;;5085398;28;20450;-68
2021/07/10 08:35:59;;;;;;;22.00;15.45;;;18.30;99.90;;;;;;5085663;28;20484;-69
2021/07/10 08:38:26;;;;;;;19.08;15.02;;;18.20;99.90;;;;;;5084276;28;20052;-68
2021/07/10 08:40:54;;;;;;;17.25;13.50;;;18.40;99.90;;;;;;5084924;28;20051;-69
2021/07/10 08:43:21;;;;;;;16.85;13.73;;;18.50;99.90;;;;;;5082124;28;20411;-70
2021/07/10 08:45:50;;;;;;;16.08;11.65;;;18.60;99.90;;;;;;5085170;28;20048;-68
2021/07/10 08:48:17;;;;;;;15.10;12.55;;;18.90;99.90;;;;;;5083155;28;20063;-68
2021/07/10 08:50:46;;;;;;;16.25;12.85;;;18.90;99.90;;;;;;5082076;28;20055;-69
2021/07/10 08:53:13;;;;;;;15.30;10.98;;;19.00;99.90;;;;;;5082990;28;20052;-68
2021/07/10 08:55:40;;;;;;;17.52;11.02;;;19.10;99.90;;;;;;5083728;28;20618;-70
2021/07/10 08:58:07;;;;;;;14.32;10.85;;;19.10;99.90;;;;;;5084979;28;20047;-69
2021/07/10 09:00:37;;;;;;;15.27;11.57;;;19.30;99.90;;;;;;5081280;28;20593;-70
2021/07/10 09:03:05;;;;;;;16.23;12.43;;;19.40;99.90;;;;;;5084253;28;20056;-71
2021/07/10 09:05:32;;;;;;;14.45;10.60;;;20.00;99.90;;;;;;5085602;28;20504;-68
2021/07/10 09:08:16;;;;;;;13.80;10.70;;;20.30;99.90;;;;;;5083375;28;20117;-68
2021/07/10 09:10:45;;;;;;;13.88;10.88;;;20.30;99.90;;;;;;5082380;28;20062;-69
2021/07/10 09:13:13;;;;;;;15.73;10.75;;;20.40;99.90;;;;;;5082952;28;20173;-67
2021/07/10 09:15:41;;;;;;;15.75;9.32;;;20.30;99.90;;;;;;5085032;28;20051;-68
2021/07/10 09:18:09;;;;;;;16.17;10.10;;;20.30;99.90;;;;;;5084470;28;20565;-68
2021/07/10 09:20:37;;;;;;;12.23;8.07;;;20.20;99.90;;;;;;5087871;28;20052;-68
2021/07/10 09:23:25;;;;;;;13.43;9.80;;;20.40;99.90;;;;;;5084812;28;20497;-68
2021/07/10 09:25:52;;;;;;;12.48;8.25;;;20.70;99.90;;;;;;5083700;28;20657;-68
2021/07/10 09:28:27;;;;;;;22.30;14.90;;;20.90;99.90;;;;;;5083650;28;20059;-68
2021/07/10 09:30:55;;;;;;;31.15;21.92;;;21.30;99.90;;;;;;5088443;28;20086;-68
2021/07/10 09:33:23;;;;;;;35.15;22.33;;;21.80;99.90;;;;;;5086838;28;20156;-69
2021/07/10 09:35:54;;;;;;;11.77;6.28;;;22.80;99.90;;;;;;5083288;28;20067;-68
2021/07/10 09:38:26;;;;;;;8.18;5.82;;;22.90;99.90;;;;;;5085463;28;20056;-69
2021/07/10 09:40:59;;;;;;;10.15;5.78;;;23.20;99.90;;;;;;5084257;28;20052;-68
2021/07/10 09:43:27;;;;;;;6.32;4.43;;;23.50;99.90;;;;;;5084617;28;20044;-68
2021/07/10 09:45:57;;;;;;;7.15;5.07;;;24.00;99.90;;;;;;5084922;28;20097;-67
2021/07/10 09:48:28;;;;;;;16.00;8.98;;;24.50;99.90;;;;;;5082298;28;20062;-69
2021/07/10 09:51:22;;;;;;;21.13;13.30;;;25.20;99.90;;;;;;5081179;28;20416;-68
2021/07/10 09:54:01;;;;;;;7.13;4.05;;;25.90;99.90;;;;;;5082889;28;20055;-68
2021/07/10 09:56:29;;;;;;;20.92;14.20;;;25.50;99.90;;;;;;5084101;28;20052;-70
2021/07/10 09:58:56;;;;;;;7.70;5.07;;;25.90;99.90;;;;;;5080036;28;20056;-69
2021/07/10 10:01:34;;;;;;;8.23;4.63;;;26.40;99.90;;;;;;5082090;28;20082;-68
2021/07/10 10:04:02;;;;;;;7.03;4.57;;;26.00;99.90;;;;;;5081679;28;20389;-68
2021/07/10 10:06:31;;;;;;;9.30;5.25;;;26.30;99.90;;;;;;5084096;28;20139;-68
2021/07/10 10:09:00;;;;;;;6.70;4.40;;;26.40;99.90;;;;;;5081508;28;20105;-68
2021/07/10 10:11:49;;;;;;;8.98;5.20;;;27.00;99.90;;;;;;5085662;28;20055;-69
2021/07/10 10:14:17;;;;;;;8.60;3.88;;;26.80;99.90;;;;;;5085534;28;20398;-68
2021/07/10 10:16:46;;;;;;;7.50;3.80;;;27.00;99.90;;;;;;5083908;28;20920;-69
2021/07/10 10:19:15;;;;;;;6.38;3.60;;;27.30;99.90;;;;;;5084226;28;20052;-68
2021/07/10 10:21:43;;;;;;;6.55;3.30;;;28.00;99.90;;;;;;5082721;28;20081;-70
2021/07/10 10:24:13;;;;;;;4.63;3.22;;;28.70;99.90;;;;;;5081153;28;20048;-69
2021/07/10 10:26:41;;;;;;;4.63;3.00;;;27.70;99.90;;;;;;5084818;28;20424;-69
2021/07/10 10:29:10;;;;;;;9.65;3.22;;;28.10;99.90;;;;;;5082586;28;20062;-68
2021/07/10 10:31:38;;;;;;;3.65;2.63;;;27.30;99.90;;;;;;5082372;28;20647;-69
2021/07/10 10:34:06;;;;;;;3.97;2.60;;;27.40;99.90;;;;;;5085410;27;20086;-69
2021/07/10 10:36:35;;;;;;;3.80;2.13;;;27.80;99.90;;;;;;5084308;28;20054;-69
2021/07/10 10:39:05;;;;;;;3.78;2.35;;;28.40;99.90;;;;;;5081655;28;20055;-68
2021/07/10 10:41:34;;;;;;;3.47;2.25;;;28.00;99.90;;;;;;5082822;28;20183;-68
2021/07/10 10:44:01;;;;;;;5.78;2.70;;;28.20;99.90;;;;;;5082905;28;20056;-69
2021/07/10 10:46:28;;;;;;;5.40;2.60;;;27.80;99.90;;;;;;5083130;28;20568;-69
2021/07/10 10:48:55;;;;;;;3.80;2.55;;;28.50;99.90;;;;;;5082146;28;20180;-68
2021/07/10 10:51:32;;;;;;;5.15;2.72;;;28.70;99.90;;;;;;5082766;28;20051;-69
2021/07/10 10:54:27;;;;;;;4.57;2.78;;;28.10;99.90;;;;;;5081131;28;20063;-69
2021/07/10 10:56:56;;;;;;;5.68;3.13;;;28.10;99.90;;;;;;5081486;28;21078;-70
2021/07/10 10:59:41;;;;;;;5.53;2.55;;;28.00;99.90;;;;;;5080831;28;20097;-69
2021/07/10 11:02:41;;;;;;;5.68;2.60;;;28.20;99.90;;;;;;5082178;28;20055;-69
2021/07/10 11:05:09;;;;;;;4.40;2.70;;;28.30;99.90;;;;;;5075740;28;20496;-69
2021/07/10 11:07:37;;;;;;;5.40;2.70;;;27.50;99.90;;;;;;5080631;28;20062;-69
2021/07/10 11:10:11;;;;;;;4.35;2.22;;;28.40;99.90;;;;;;5080324;28;20130;-69
2021/07/10 11:12:57;;;;;;;3.67;2.30;;;27.40;99.90;;;;;;5082155;28;20044;-70
2021/07/10 11:15:43;;;;;;;3.50;2.05;;;28.20;99.90;;;;;;5083163;28;20447;-69
2021/07/10 11:18:28;;;;;;;4.68;2.25;;;27.60;99.90;;;;;;5082332;28;20054;-69
2021/07/10 11:20:56;;;;;;;4.70;2.15;;;28.00;99.90;;;;;;5079709;28;20083;-69
2021/07/10 11:23:28;;;;;;;4.85;2.17;;;27.80;99.90;;;;;;5080210;28;20622;-69
2021/07/10 11:26:00;;;;;;;4.18;2.25;;;28.00;99.90;;;;;;5082316;28;20089;-68
2021/07/10 11:28:40;;;;;;;4.28;2.10;;;27.70;99.90;;;;;;5078299;28;20051;-69
2021/07/10 11:31:10;;;;;;;4.25;2.30;;;27.20;99.90;;;;;;5083430;28;20047;-69
2021/07/10 11:34:13;;;;;;;3.50;2.00;;;27.30;99.90;;;;;;5076874;28;20528;-70
2021/07/10 11:36:46;;;;;;;6.47;2.67;;;27.60;99.90;;;;;;5082445;28;20064;-70
2021/07/10 11:39:38;;;;;;;2.97;2.22;;;28.00;99.90;;;;;;5081786;28;20066;-69
2021/07/10 11:42:34;;;;;;;2.65;2.20;;;27.90;99.90;;;;;;5079441;28;20056;-69
2021/07/10 11:45:31;;;;;;;4.40;2.57;;;27.80;99.90;;;;;;5080938;28;20060;-69
2021/07/10 11:48:26;;;;;;;3.10;2.10;;;28.10;99.90;;;;;;5081029;28;20056;-69
2021/07/10 11:51:04;;;;;;;4.65;2.25;;;28.10;99.90;;;;;;5080578;28;20527;-69
2021/07/10 11:53:31;;;;;;;5.10;2.75;;;28.00;99.90;;;;;;5080753;28;20116;-70
2021/07/10 11:55:59;;;;;;;4.55;2.22;;;28.30;99.90;;;;;;5085830;28;20052;-70
2021/07/10 11:58:27;;;;;;;4.03;2.28;;;29.10;99.90;;;;;;5085112;28;20055;-70
2021/07/10 12:01:00;;;;;;;4.07;1.95;;;28.80;99.90;;;;;;5085018;28;20491;-70
2021/07/10 12:03:28;;;;;;;4.35;2.25;;;28.60;99.90;;;;;;5084436;28;20134;-70
2021/07/10 12:05:57;;;;;;;5.50;2.30;;;28.50;99.90;;;;;;5086383;28;20166;-69
2021/07/10 12:08:25;;;;;;;4.20;2.38;;;28.40;99.90;;;;;;5085369;28;20047;-70
2021/07/10 12:10:54;;;;;;;4.65;2.45;;;28.20;99.90;;;;;;5083819;28;20576;-70
2021/07/10 12:13:23;;;;;;;5.50;2.10;;;29.10;99.90;;;;;;5084873;28;20048;-70
2021/07/10 12:15:52;;;;;;;5.00;2.50;;;30.10;99.90;;;;;;5084802;28;20060;-71
2021/07/10 12:18:22;;;;;;;5.03;2.45;;;30.50;99.90;;;;;;5083384;28;20044;-70
2021/07/10 12:20:51;;;;;;;3.95;2.00;;;31.00;99.90;;;;;;5086005;28;20522;-71
2021/07/10 12:23:21;;;;;;;3.80;2.38;;;30.40;99.90;;;;;;5082673;28;20077;-70
2021/07/10 12:25:51;;;;;;;3.20;1.95;;;30.20;99.90;;;;;;5084801;28;20496;-70
2021/07/10 12:28:36;;;;;;;3.20;2.20;;;29.90;99.90;;;;;;5084887;28;20134;-70
2021/07/10 12:31:05;;;;;;;5.28;2.22;;;29.80;99.90;;;;;;5084437;28;20065;-70
2021/07/10 12:33:48;;;;;;;3.13;2.10;;;30.10;99.90;;;;;;5086675;28;20052;-69
2021/07/10 12:36:23;;;;;;;3.55;2.17;;;30.30;99.90;;;;;;5083721;28;20440;-70
2021/07/10 12:38:54;;;;;;;4.03;2.10;;;29.70;99.90;;;;;;5080132;28;20105;-69